createdAt,value
2019-04-07T00:00:17.225Z,80.83
2019-04-07T00:02:46.412Z,87.07
2019-04-07T00:05:15.444Z,85.00
2019-04-07T00:07:44.816Z,74.67
2019-04-07T00:10:14.276Z,58.00
2019-04-07T00:12:43.230Z,48.90
2019-04-07T00:15:12.168Z,57.17
2019-04-07T00:17:41.017Z,50.83
2019-04-07T00:20:10.018Z,55.63
2019-04-07T00:22:38.876Z,57.10
2019-04-07T00:25:07.821Z,57.90
2019-04-07T00:27:36.876Z,54.47
2019-04-07T00:30:07.618Z,58.33
2019-04-07T00:32:36.520Z,55.27
2019-04-07T00:35:07.147Z,48.97
2019-04-07T00:37:36.303Z,45.03
2019-04-07T00:40:07.143Z,45.30
2019-04-07T00:42:36.049Z,41.87
2019-04-07T00:45:06.314Z,41.50
2019-04-07T00:47:35.153Z,37.47
2019-04-07T00:50:04.858Z,41.67
2019-04-07T00:52:33.744Z,33.87
2019-04-07T00:55:02.550Z,38.80
2019-04-07T00:57:31.677Z,38.70
2019-04-07T01:00:00.584Z,44.80
2019-04-07T01:02:29.419Z,41.27
2019-04-07T01:04:58.422Z,39.73
2019-04-07T01:07:27.931Z,45.13
2019-04-07T01:09:57.357Z,51.90
2019-04-07T01:12:26.263Z,42.27
2019-04-07T01:14:55.393Z,39.47
2019-04-07T01:17:24.354Z,37.30
2019-04-07T01:19:53.579Z,36.63
2019-04-07T01:22:22.520Z,28.63
2019-04-07T01:24:51.787Z,31.77
2019-04-07T01:27:20.861Z,28.80
2019-04-07T01:29:49.684Z,33.80
2019-04-07T01:32:19.169Z,32.50
2019-04-07T01:34:48.134Z,41.47
2019-04-07T01:37:16.970Z,36.03
2019-04-07T01:39:45.869Z,42.17
2019-04-07T01:42:19.076Z,43.47
2019-04-07T01:45:06.116Z,35.37
2019-04-07T01:47:36.983Z,45.33
2019-04-07T01:50:15.186Z,43.67
2019-04-07T01:52:46.847Z,40.73
2019-04-07T01:55:20.371Z,43.60
2019-04-07T01:58:08.604Z,44.63
2019-04-07T02:03:20.740Z,44.57
2019-04-07T02:06:05.014Z,41.87
2019-04-07T02:08:35.349Z,41.67
2019-04-07T02:11:17.634Z,45.53
2019-04-07T02:13:48.293Z,42.97
2019-04-07T02:16:33.377Z,35.67
2019-04-07T02:19:09.729Z,33.63
2019-04-07T02:21:55.757Z,34.83
2019-04-07T02:24:29.073Z,34.60
2019-04-07T02:27:08.586Z,28.47
2019-04-07T02:29:45.048Z,33.03
2019-04-07T02:32:15.529Z,32.73
2019-04-07T02:35:04.323Z,33.37
2019-04-07T02:37:38.628Z,38.97
2019-04-07T02:40:15.435Z,29.97
2019-04-07T02:42:58.853Z,24.37
2019-04-07T02:45:32.293Z,24.90
2019-04-07T02:48:20.969Z,23.80
2019-04-07T02:51:08.087Z,26.90
2019-04-07T02:53:39.175Z,29.40
2019-04-07T02:56:13.335Z,32.37
2019-04-07T02:59:02.360Z,35.43
2019-04-07T03:01:33.095Z,35.87
2019-04-07T03:04:12.601Z,30.73
2019-04-07T03:06:52.888Z,30.67
2019-04-07T03:09:37.869Z,29.13
2019-04-07T03:12:08.318Z,30.70
2019-04-07T03:14:47.856Z,30.50
2019-04-07T03:17:37.459Z,45.13
2019-04-07T03:20:18.784Z,38.07
2019-04-07T03:23:02.181Z,47.33
2019-04-07T03:25:45.289Z,54.77
2019-04-07T03:28:16.143Z,46.37
2019-04-07T03:30:59.218Z,46.73
2019-04-07T03:33:49.885Z,46.70
2019-04-07T03:37:09.707Z,33.80
2019-04-07T03:39:19.130Z,32.10
2019-04-07T03:42:01.700Z,28.87
2019-04-07T03:44:34.899Z,33.80
2019-04-07T03:47:05.345Z,32.30
2019-04-07T03:49:39.423Z,32.60
2019-04-07T03:52:26.823Z,34.40
2019-04-07T03:55:09.522Z,30.43
2019-04-07T03:57:46.345Z,33.30
2019-04-07T04:00:42.267Z,34.60
2019-04-07T04:03:12.896Z,34.63
2019-04-07T04:05:43.522Z,34.10
2019-04-07T04:08:14.093Z,32.50
2019-04-07T04:10:47.136Z,32.90
2019-04-07T04:13:30.571Z,32.13
2019-04-07T04:16:01.245Z,33.23
2019-04-07T04:18:30.968Z,32.17
2019-04-07T04:20:59.903Z,35.43
2019-04-07T04:23:28.796Z,33.30
2019-04-07T04:25:57.636Z,38.53
2019-04-07T04:28:27.368Z,35.17
2019-04-07T04:30:56.715Z,31.10
2019-04-07T04:33:25.704Z,33.57
2019-04-07T04:35:54.552Z,33.77
2019-04-07T04:38:24.202Z,33.70
2019-04-07T04:40:53.224Z,29.23
2019-04-07T04:43:22.090Z,29.33
2019-04-07T04:45:50.981Z,31.63
2019-04-07T04:48:19.850Z,32.10
2019-04-07T04:50:49.163Z,34.93
2019-04-07T04:53:18.403Z,43.23
2019-04-07T04:55:47.417Z,41.57
2019-04-07T04:58:16.256Z,40.37
2019-04-07T05:00:45.171Z,37.63
2019-04-07T05:03:14.016Z,47.53
2019-04-07T05:05:43.165Z,32.97
2019-04-07T05:08:12.903Z,30.80
2019-04-07T05:10:41.899Z,32.63
2019-04-07T05:13:10.857Z,32.40
2019-04-07T05:15:39.953Z,33.53
2019-04-07T05:18:08.868Z,30.27
2019-04-07T05:20:37.727Z,34.73
2019-04-07T05:23:06.675Z,33.27
2019-04-07T05:25:36.129Z,32.80
2019-04-07T05:28:05.809Z,29.60
2019-04-07T05:30:34.752Z,33.77
2019-04-07T05:33:03.593Z,32.97
2019-04-07T05:35:32.920Z,31.07
2019-04-07T05:38:04.930Z,34.37
2019-04-07T05:40:33.334Z,29.50
2019-04-07T05:43:02.164Z,36.13
2019-04-07T05:45:31.544Z,26.83
2019-04-07T05:48:00.539Z,28.77
2019-04-07T05:50:29.672Z,31.57
2019-04-07T05:52:58.796Z,34.03
2019-04-07T05:55:28.098Z,35.80
2019-04-07T05:57:57.568Z,32.77
2019-04-07T06:00:26.550Z,34.97
2019-04-07T06:02:55.982Z,36.93
2019-04-07T06:05:25.462Z,39.20
2019-04-07T06:07:54.404Z,39.30
2019-04-07T06:10:26.599Z,47.40
2019-04-07T06:12:54.120Z,51.77
2019-04-07T06:15:23.309Z,44.80
2019-04-07T06:17:52.274Z,48.30
2019-04-07T06:20:21.124Z,43.43
2019-04-07T06:22:53.020Z,43.87
2019-04-07T06:25:20.849Z,42.17
2019-04-07T06:27:50.115Z,42.20
2019-04-07T06:30:19.971Z,36.40
2019-04-07T06:32:48.836Z,45.20
2019-04-07T06:35:18.248Z,50.03
2019-04-07T06:37:47.651Z,46.53
2019-04-07T06:40:20.351Z,46.43
2019-04-07T06:42:48.791Z,41.57
2019-04-07T06:45:21.819Z,60.17
2019-04-07T06:47:51.858Z,68.83
2019-04-07T06:50:25.866Z,65.97
2019-04-07T06:53:17.320Z,70.67
2019-04-07T06:56:01.816Z,73.97
2019-04-07T06:58:49.204Z,82.00
2019-04-07T07:01:29.666Z,77.70
2019-04-07T07:04:16.751Z,67.47
2019-04-07T07:06:51.397Z,57.90
2019-04-07T07:09:31.839Z,44.83
2019-04-07T07:12:06.120Z,41.43
2019-04-07T07:14:44.361Z,48.37
2019-04-07T07:17:19.544Z,46.53
2019-04-07T07:19:57.247Z,42.00
2019-04-07T07:22:28.576Z,40.03
2019-04-07T07:24:59.862Z,44.17
2019-04-07T07:27:28.013Z,40.07
2019-04-07T07:29:57.766Z,42.30
2019-04-07T07:32:26.884Z,49.43
2019-04-07T07:34:55.725Z,52.90
2019-04-07T07:37:25.285Z,45.17
2019-04-07T07:39:55.373Z,41.67
2019-04-07T07:42:24.537Z,45.87
2019-04-07T07:44:53.562Z,43.43
2019-04-07T07:47:23.010Z,51.23
2019-04-07T07:49:52.049Z,43.83
2019-04-07T07:52:23.251Z,44.87
2019-04-07T07:54:55.116Z,53.97
2019-04-07T07:57:30.542Z,44.13
2019-04-07T07:59:59.736Z,61.17
2019-04-07T08:02:31.088Z,54.53
2019-04-07T08:05:00.595Z,52.50
2019-04-07T08:07:30.197Z,55.30
2019-04-07T08:09:59.616Z,57.33
2019-04-07T08:12:32.372Z,50.40
2019-04-07T08:14:59.156Z,50.80
2019-04-07T08:17:31.634Z,54.37
2019-04-07T08:19:58.828Z,54.87
2019-04-07T08:22:33.937Z,51.90
2019-04-07T08:24:58.795Z,49.30
2019-04-07T08:27:31.031Z,48.47
2019-04-07T08:29:58.393Z,46.97
2019-04-07T08:32:30.791Z,49.93
2019-04-07T08:35:02.731Z,49.47
2019-04-07T08:37:29.631Z,47.73
2019-04-07T08:39:59.393Z,41.27
2019-04-07T08:42:28.440Z,47.27
2019-04-07T08:44:59.476Z,43.47
2019-04-07T08:47:31.296Z,45.13
2019-04-07T08:50:00.126Z,42.20
2019-04-07T08:52:29.013Z,40.63
2019-04-07T08:54:58.015Z,41.43
2019-04-07T08:57:29.392Z,41.50
2019-04-07T08:59:57.538Z,41.80
2019-04-07T09:02:29.286Z,41.37
2019-04-07T09:04:57.441Z,42.43
2019-04-07T09:07:26.636Z,35.87
2019-04-07T09:09:55.595Z,38.97
2019-04-07T09:12:27.455Z,36.00
2019-04-07T09:14:55.620Z,34.78
2019-04-07T09:17:43.667Z,24.27
2019-04-07T09:20:11.004Z,26.42
2019-04-07T09:22:42.077Z,27.35
2019-04-07T09:25:19.360Z,24.05
2019-04-07T09:28:06.416Z,15.83
2019-04-07T09:30:53.662Z,15.30
2019-04-07T09:33:24.361Z,17.87
2019-04-07T09:36:00.722Z,15.05
2019-04-07T09:38:50.021Z,10.55
2019-04-07T09:41:29.682Z,11.08
2019-04-07T09:44:10.273Z,9.88
2019-04-07T09:46:59.589Z,5.00
2019-04-07T09:49:30.919Z,7.47
2019-04-07T09:52:17.876Z,5.67
2019-04-07T09:55:01.152Z,6.60
2019-04-07T09:57:43.742Z,5.45
2019-04-07T10:00:21.645Z,6.85
2019-04-07T10:03:12.698Z,5.33
2019-04-07T10:05:43.734Z,9.75
2019-04-07T10:08:26.516Z,8.53
2019-04-07T10:11:14.983Z,8.95
2019-04-07T10:13:47.949Z,7.53
2019-04-07T10:16:21.154Z,9.25
2019-04-07T10:18:52.202Z,10.45
2019-04-07T10:21:25.446Z,7.90
2019-04-07T10:23:56.351Z,8.70
2019-04-07T10:26:30.244Z,6.80
2019-04-07T10:29:07.147Z,9.03
2019-04-07T10:31:40.927Z,9.37
2019-04-07T10:34:29.544Z,7.33
2019-04-07T10:37:08.980Z,16.03
2019-04-07T10:39:59.358Z,8.27
2019-04-07T10:42:35.881Z,13.17
2019-04-07T10:45:09.099Z,12.67
2019-04-07T10:47:48.769Z,7.77
2019-04-07T10:50:35.756Z,8.00
2019-04-07T10:53:22.829Z,10.63
2019-04-07T10:55:56.415Z,6.73
2019-04-07T10:58:27.861Z,6.57
2019-04-07T11:00:58.690Z,9.67
2019-04-07T11:03:48.685Z,8.90
2019-04-07T11:06:24.879Z,7.93
2019-04-07T11:09:11.585Z,7.43
2019-04-07T11:11:54.257Z,7.93
2019-04-07T11:14:28.304Z,8.20
2019-04-07T11:17:00.226Z,8.60
2019-04-07T11:19:46.108Z,8.50
2019-04-07T11:22:33.765Z,7.47
2019-04-07T11:25:05.417Z,10.70
2019-04-07T11:27:45.225Z,9.57
2019-04-07T11:30:16.946Z,8.10
2019-04-07T11:33:03.492Z,8.10
2019-04-07T11:35:34.586Z,10.43
2019-04-07T11:38:05.802Z,7.47
2019-04-07T11:40:42.561Z,8.40
2019-04-07T11:43:08.768Z,11.73
2019-04-07T11:45:56.065Z,10.93
2019-04-07T11:48:21.001Z,10.33
2019-04-07T11:50:52.205Z,8.10
2019-04-07T11:53:23.194Z,8.20
2019-04-07T11:56:03.406Z,9.23
2019-04-07T11:58:37.631Z,8.70
2019-04-07T12:01:24.004Z,9.93
2019-04-07T12:03:55.079Z,8.37
2019-04-07T12:06:46.672Z,10.57
2019-04-07T12:09:20.727Z,8.73
2019-04-07T12:11:52.640Z,10.13
2019-04-07T12:14:28.930Z,11.10
2019-04-07T12:17:16.686Z,8.93
2019-04-07T12:19:55.123Z,10.87
2019-04-07T12:22:26.079Z,9.80
2019-04-07T12:25:13.119Z,11.73
2019-04-07T12:27:55.890Z,11.17
2019-04-07T12:30:41.491Z,13.20
2019-04-07T12:33:23.191Z,14.00
2019-04-07T12:35:56.328Z,14.07
2019-04-07T12:38:45.029Z,19.23
2019-04-07T12:41:21.999Z,16.43
2019-04-07T12:44:06.088Z,19.60
2019-04-07T12:46:36.825Z,19.23
2019-04-07T12:49:10.927Z,17.87
2019-04-07T12:51:57.924Z,16.73
2019-04-07T12:54:34.325Z,16.27
2019-04-07T12:57:10.604Z,24.63
2019-04-07T12:59:41.211Z,10.23
2019-04-07T13:02:17.929Z,9.87
2019-04-07T13:04:46.957Z,16.73
2019-04-07T13:07:20.437Z,9.23
2019-04-07T13:09:49.450Z,12.00
2019-04-07T13:12:32.199Z,11.33
2019-04-07T13:15:19.451Z,10.27
2019-04-07T13:18:07.719Z,13.30
2019-04-07T13:20:53.516Z,10.33
2019-04-07T13:23:37.042Z,14.93
2019-04-07T13:26:30.241Z,11.77
2019-04-07T13:29:04.246Z,38.00
2019-04-07T13:31:48.076Z,40.03
2019-04-07T13:34:33.808Z,19.73
2019-04-07T13:37:04.583Z,12.00
2019-04-07T13:39:40.698Z,10.87
2019-04-07T13:42:16.469Z,32.03
2019-04-07T13:44:47.025Z,13.87
2019-04-07T13:47:26.783Z,18.77
2019-04-07T13:50:00.687Z,15.40
2019-04-07T13:52:52.788Z,15.17
2019-04-07T13:55:20.745Z,21.77
2019-04-07T13:57:55.624Z,21.00
2019-04-07T14:00:39.623Z,17.73
2019-04-07T14:03:10.183Z,17.23
2019-04-07T14:05:41.124Z,14.40
2019-04-07T14:08:17.883Z,16.37
2019-04-07T14:10:58.201Z,13.50
2019-04-07T14:13:42.610Z,13.73
2019-04-07T14:16:16.066Z,17.10
2019-04-07T14:18:53.075Z,18.53
2019-04-07T14:21:32.302Z,15.33
2019-04-07T14:24:03.632Z,19.03
2019-04-07T14:26:41.222Z,18.90
2019-04-07T14:29:12.004Z,18.23
2019-04-07T14:31:48.045Z,17.87
2019-04-07T14:34:27.672Z,21.70
2019-04-07T14:37:07.357Z,16.43
2019-04-07T14:39:40.510Z,16.43
2019-04-07T14:42:11.957Z,13.00
2019-04-07T14:44:42.447Z,14.93
2019-04-07T14:47:19.828Z,18.73
2019-04-07T14:49:59.176Z,22.90
2019-04-07T14:52:38.437Z,20.10
2019-04-07T14:55:11.841Z,15.23
2019-04-07T14:57:43.682Z,16.67
2019-04-07T15:00:21.604Z,16.03
2019-04-07T15:02:51.298Z,17.27
2019-04-07T15:05:25.437Z,20.57
2019-04-07T15:07:59.501Z,18.57
2019-04-07T15:10:28.312Z,12.73
2019-04-07T15:13:05.334Z,16.90
2019-04-07T15:15:34.317Z,14.13
2019-04-07T15:18:03.760Z,19.30
2019-04-07T15:20:32.797Z,18.10
2019-04-07T15:23:01.919Z,17.33
2019-04-07T15:25:31.712Z,18.07
2019-04-07T15:28:01.310Z,14.63
2019-04-07T15:30:31.091Z,23.00
2019-04-07T15:33:02.435Z,18.70
2019-04-07T15:35:30.622Z,21.47
2019-04-07T15:37:59.501Z,21.87
2019-04-07T15:40:28.361Z,23.43
2019-04-07T15:43:01.484Z,26.90
2019-04-07T15:45:28.719Z,29.90
2019-04-07T15:47:59.246Z,25.17
2019-04-07T15:50:30.206Z,26.77
2019-04-07T15:52:59.514Z,29.33
2019-04-07T15:55:43.287Z,19.10
2019-04-07T15:57:59.674Z,13.43
2019-04-07T16:00:32.366Z,14.27
2019-04-07T16:03:00.025Z,13.83
2019-04-07T16:05:29.991Z,14.17
2019-04-07T16:08:01.020Z,14.40
2019-04-07T16:10:30.171Z,13.67
2019-04-07T16:12:59.548Z,12.23
2019-04-07T16:15:29.484Z,13.37
2019-04-07T16:17:58.808Z,13.40
2019-04-07T16:20:32.334Z,12.80
2019-04-07T16:22:58.419Z,13.17
2019-04-07T16:25:28.231Z,12.00
2019-04-07T16:27:58.692Z,13.13
2019-04-07T16:30:27.692Z,13.20
2019-04-07T16:33:00.570Z,18.03
2019-04-07T16:35:27.818Z,26.67
2019-04-07T16:37:58.370Z,24.47
2019-04-07T16:40:28.042Z,25.07
2019-04-07T16:43:09.233Z,24.57
2019-04-07T16:45:28.273Z,18.53
2019-04-07T16:47:57.788Z,18.13
2019-04-07T16:50:27.248Z,18.33
2019-04-07T16:52:57.480Z,22.07
2019-04-07T16:55:34.934Z,27.00
2019-04-07T16:58:04.033Z,17.93
2019-04-07T17:00:32.911Z,26.63
2019-04-07T17:03:02.465Z,24.17
2019-04-07T17:05:32.213Z,21.20
2019-04-07T17:08:01.734Z,34.40
2019-04-07T17:10:33.890Z,28.30
2019-04-07T17:13:05.433Z,28.40
2019-04-07T17:15:34.830Z,18.17
2019-04-07T17:18:02.891Z,11.97
2019-04-07T17:20:35.985Z,12.83
2019-04-07T17:23:02.333Z,13.10
2019-04-07T17:25:32.895Z,14.67
2019-04-07T17:28:03.772Z,22.37
2019-04-07T17:30:32.251Z,20.93
2019-04-07T17:33:03.283Z,22.60
2019-04-07T17:35:31.736Z,27.07
2019-04-07T17:38:04.064Z,26.37
2019-04-07T17:40:33.777Z,30.97
2019-04-07T17:43:25.661Z,50.67
2019-04-07T17:45:58.320Z,59.53
2019-04-07T17:48:38.718Z,112.10
2019-04-07T17:51:08.754Z,86.47
2019-04-07T17:53:55.101Z,85.00
2019-04-07T17:56:30.220Z,97.50
2019-04-07T17:59:04.430Z,81.63
2019-04-07T18:01:41.049Z,93.47
2019-04-07T18:04:14.632Z,114.10
2019-04-07T18:06:47.621Z,127.50
2019-04-07T18:09:37.255Z,84.33
2019-04-07T18:12:14.051Z,78.70
2019-04-07T18:15:03.574Z,78.13
2019-04-07T18:17:46.129Z,91.40
2019-04-07T18:20:33.825Z,92.63
2019-04-07T18:23:04.436Z,90.40
2019-04-07T18:25:47.888Z,77.37
2019-04-07T18:28:24.667Z,67.17
2019-04-07T18:31:06.774Z,59.60
2019-04-07T18:33:53.702Z,69.90
2019-04-07T18:36:34.725Z,66.60
2019-04-07T18:39:23.021Z,117.67
2019-04-07T18:42:11.447Z,120.30
2019-04-07T18:44:59.528Z,114.40
2019-04-07T18:47:37.009Z,65.07
2019-04-07T18:50:27.462Z,75.13
2019-04-07T18:53:01.586Z,81.37
2019-04-07T18:55:33.283Z,85.07
2019-04-07T18:58:07.527Z,104.53
2019-04-07T19:00:48.241Z,105.57
2019-04-07T19:03:24.764Z,103.57
2019-04-07T19:05:56.525Z,93.40
2019-04-07T19:08:39.250Z,91.07
2019-04-07T19:11:16.579Z,77.70
2019-04-07T19:14:12.878Z,113.10
2019-04-07T19:16:42.022Z,162.60
2019-04-07T19:19:18.037Z,161.20
2019-04-07T19:22:06.700Z,145.10
2019-04-07T19:24:46.307Z,144.40
2019-04-07T19:27:33.268Z,144.50
2019-04-07T19:30:06.682Z,103.73
2019-04-07T19:32:37.442Z,119.47
2019-04-07T19:35:08.891Z,119.80
2019-04-07T19:37:47.426Z,132.33
2019-04-07T19:40:27.703Z,112.77
2019-04-07T19:43:13.328Z,127.10
2019-04-07T19:45:50.116Z,124.03
2019-04-07T19:48:40.556Z,108.73
2019-04-07T19:51:15.465Z,101.37
2019-04-07T19:53:52.071Z,94.50
2019-04-07T19:56:39.333Z,90.83
2019-04-07T19:59:28.189Z,78.83
2019-04-07T20:02:00.673Z,85.43
2019-04-07T20:04:37.343Z,95.30
2019-04-07T20:07:07.930Z,103.37
2019-04-07T20:09:50.484Z,98.27
2019-04-07T20:12:34.676Z,118.20
2019-04-07T20:15:13.989Z,93.03
2019-04-07T20:17:43.551Z,95.40
2019-04-07T20:20:17.518Z,85.80
2019-04-07T20:22:47.916Z,71.23
2019-04-07T20:25:20.195Z,67.03
2019-04-07T20:27:51.239Z,78.23
2019-04-07T20:30:35.501Z,70.07
2019-04-07T20:33:08.349Z,72.17
2019-04-07T20:35:55.507Z,90.43
2019-04-07T20:38:30.189Z,88.77
2019-04-07T20:41:11.819Z,99.67
2019-04-07T20:44:01.183Z,112.03
2019-04-07T20:46:31.716Z,98.37
2019-04-07T20:49:18.704Z,91.80
2019-04-07T20:52:01.219Z,105.23
2019-04-07T20:54:35.172Z,107.07
2019-04-07T20:57:03.799Z,125.53
2019-04-07T20:59:50.125Z,107.13
2019-04-07T21:02:33.741Z,100.03
2019-04-07T21:05:04.587Z,107.33
2019-04-07T21:07:35.487Z,98.57
2019-04-07T21:10:09.858Z,92.63
2019-04-07T21:12:55.036Z,96.47
2019-04-07T21:15:30.587Z,96.17
2019-04-07T21:18:00.674Z,85.13
2019-04-07T21:20:38.902Z,96.93
2019-04-07T21:23:21.466Z,94.73
2019-04-07T21:25:55.483Z,101.03
2019-04-07T21:28:35.182Z,94.33
2019-04-07T21:31:08.102Z,85.00
2019-04-07T21:33:55.811Z,92.33
2019-04-07T21:36:32.219Z,88.00
2019-04-07T21:39:08.753Z,95.03
2019-04-07T21:41:45.542Z,89.63
2019-04-07T21:44:35.765Z,81.27
2019-04-07T21:47:06.407Z,87.20
2019-04-07T21:49:53.591Z,90.50
2019-04-07T21:52:38.955Z,90.33
2019-04-07T21:55:27.342Z,90.83
2019-04-07T21:57:58.766Z,93.57
2019-04-07T22:00:39.150Z,104.93
2019-04-07T22:03:11.417Z,108.63
2019-04-07T22:05:57.117Z,99.20
2019-04-07T22:08:34.777Z,101.43
2019-04-07T22:11:03.679Z,104.50
2019-04-07T22:13:34.596Z,102.83
2019-04-07T22:16:04.214Z,102.70
2019-04-07T22:18:33.167Z,98.37
2019-04-07T22:21:02.034Z,106.10
2019-04-07T22:23:31.807Z,102.00
2019-04-07T22:26:02.270Z,85.87
2019-04-07T22:28:31.792Z,83.63
2019-04-07T22:31:01.495Z,81.23
2019-04-07T22:33:32.414Z,76.83
2019-04-07T22:36:01.796Z,76.07
2019-04-07T22:38:31.523Z,83.97
2019-04-07T22:41:00.637Z,67.83
2019-04-07T22:43:29.552Z,73.50
2019-04-07T22:46:07.814Z,69.67
2019-04-07T22:48:29.495Z,69.83
2019-04-07T22:50:58.882Z,67.40
2019-04-07T22:53:30.918Z,71.07
2019-04-07T22:55:59.106Z,61.53
2019-04-07T22:58:28.157Z,57.87
